createdAt,value
2023-02-21T00:00:10.912Z,89.50
2023-02-21T00:01:10.884Z,89.13
2023-02-21T00:02:10.922Z,89.81
2023-02-21T00:03:10.883Z,89.95
2023-02-21T00:04:10.860Z,89.75
2023-02-21T00:05:10.909Z,90.53
2023-02-21T00:06:10.893Z,90.67
2023-02-21T00:07:10.820Z,90.67
2023-02-21T00:08:10.839Z,90.33
2023-02-21T00:09:10.874Z,90.33
2023-02-21T00:10:10.929Z,90.22
2023-02-21T00:11:10.790Z,90.33
2023-02-21T00:12:10.766Z,90.47
2023-02-21T00:13:10.771Z,90.33
2023-02-21T00:14:10.765Z,90.99
2023-02-21T00:15:10.746Z,91.19
2023-02-21T00:16:10.773Z,90.99
2023-02-21T00:17:10.705Z,90.99
2023-02-21T00:18:10.701Z,90.53
2023-02-21T00:19:10.703Z,91.19
2023-02-21T00:20:10.674Z,91.15
2023-02-21T00:21:10.681Z,90.99
2023-02-21T00:22:10.677Z,91.19
2023-02-21T00:23:10.637Z,91.50
2023-02-21T00:24:10.640Z,91.81
2023-02-21T00:25:10.634Z,91.81
2023-02-21T00:26:10.609Z,91.91
2023-02-21T00:27:20.589Z,91.91
2023-02-21T00:28:10.606Z,91.71
2023-02-21T00:29:10.619Z,91.91
2023-02-21T00:30:10.665Z,92.12
2023-02-21T00:31:10.641Z,92.22
2023-02-21T00:32:10.540Z,92.22
2023-02-21T00:33:10.627Z,91.50
2023-02-21T00:34:10.511Z,92.12
2023-02-21T00:35:10.519Z,91.91
2023-02-21T00:36:10.500Z,92.22
2023-02-21T00:37:10.471Z,92.02
2023-02-21T00:38:10.467Z,92.22
2023-02-21T00:39:10.447Z,92.16
2023-02-21T00:40:10.462Z,92.12
2023-02-21T00:41:10.427Z,92.02
2023-02-21T00:42:10.474Z,91.91
2023-02-21T00:43:10.401Z,91.64
2023-02-21T00:44:10.400Z,91.64
2023-02-21T00:45:10.405Z,92.16
2023-02-21T00:46:10.457Z,92.16
2023-02-21T00:47:10.360Z,92.16
2023-02-21T00:48:10.375Z,92.27
2023-02-21T00:49:10.373Z,92.06
2023-02-21T00:50:10.331Z,91.85
2023-02-21T00:51:10.318Z,91.75
2023-02-21T00:52:10.318Z,92.16
2023-02-21T00:53:10.331Z,92.06
2023-02-21T00:54:10.310Z,91.75
2023-02-21T00:55:10.272Z,91.64
2023-02-21T00:56:10.264Z,91.96
2023-02-21T00:57:10.272Z,92.37
2023-02-21T00:58:10.235Z,91.96
2023-02-21T00:59:10.239Z,91.54
2023-02-21T01:00:10.288Z,92.16
2023-02-21T01:01:10.277Z,91.64
2023-02-21T01:02:10.213Z,91.54
2023-02-21T01:03:10.199Z,91.75
2023-02-21T01:04:10.212Z,91.24
2023-02-21T01:05:10.156Z,91.64
2023-02-21T01:06:10.162Z,91.13
2023-02-21T01:07:10.170Z,91.13
2023-02-21T01:08:10.156Z,91.03
2023-02-21T01:09:10.121Z,91.34
2023-02-21T01:10:10.115Z,91.44
2023-02-21T01:11:10.091Z,91.54
2023-02-21T01:12:10.117Z,91.44
2023-02-21T01:13:10.068Z,91.34
2023-02-21T01:14:10.086Z,91.34
2023-02-21T01:15:10.046Z,91.44
2023-02-21T01:16:10.108Z,91.13
2023-02-21T01:17:13.437Z,91.03
2023-02-21T01:18:10.048Z,91.13
2023-02-21T01:19:10.008Z,91.03
2023-02-21T01:20:09.996Z,91.03
2023-02-21T01:21:09.986Z,91.34
2023-02-21T01:22:09.975Z,91.24
2023-02-21T01:23:09.975Z,91.03
2023-02-21T01:24:09.959Z,91.13
2023-02-21T01:25:09.957Z,91.13
2023-02-21T01:26:09.944Z,91.44
2023-02-21T01:27:09.918Z,91.34
2023-02-21T01:28:09.902Z,91.24
2023-02-21T01:29:09.904Z,91.24
2023-02-21T01:30:09.902Z,91.75
2023-02-21T01:31:09.930Z,91.03
2023-02-21T01:32:09.930Z,91.75
2023-02-21T01:33:09.871Z,91.54
2023-02-21T01:34:09.855Z,91.64
2023-02-21T01:35:09.826Z,91.64
2023-02-21T01:36:09.836Z,91.24
2023-02-21T01:37:09.827Z,91.64
2023-02-21T01:38:09.784Z,91.85
2023-02-21T01:39:09.784Z,91.54
2023-02-21T01:40:09.770Z,91.24
2023-02-21T01:41:09.775Z,91.24
2023-02-21T01:42:09.754Z,91.64
2023-02-21T01:43:09.745Z,91.54
2023-02-21T01:44:09.717Z,91.75
2023-02-21T01:45:09.709Z,91.85
2023-02-21T01:46:09.792Z,91.54
2023-02-21T01:47:09.696Z,91.85
2023-02-21T01:48:09.704Z,92.27
2023-02-21T01:49:09.682Z,91.64
2023-02-21T01:50:09.648Z,92.27
2023-02-21T01:51:09.640Z,91.96
2023-02-21T01:52:09.641Z,91.54
2023-02-21T01:53:09.626Z,91.75
2023-02-21T01:54:09.612Z,92.47
2023-02-21T01:55:09.617Z,92.47
2023-02-21T01:56:09.578Z,91.85
2023-02-21T01:57:09.577Z,91.96
2023-02-21T01:58:09.568Z,92.06
2023-02-21T01:59:09.594Z,91.64
2023-02-21T02:00:09.565Z,92.57
2023-02-21T02:01:09.684Z,92.16
2023-02-21T02:02:09.516Z,92.06
2023-02-21T02:03:09.507Z,92.27
2023-02-21T02:04:09.536Z,92.37
2023-02-21T02:05:09.534Z,92.27
2023-02-21T02:06:09.464Z,92.57
2023-02-21T02:07:09.461Z,92.47
2023-02-21T02:08:09.461Z,92.47
2023-02-21T02:09:09.436Z,92.37
2023-02-21T02:10:09.417Z,92.27
2023-02-21T02:11:09.439Z,92.37
2023-02-21T02:12:09.397Z,92.57
2023-02-21T02:13:09.406Z,92.43
2023-02-21T02:14:12.228Z,92.57
2023-02-21T02:15:09.365Z,92.16
2023-02-21T02:16:09.415Z,92.06
2023-02-21T02:17:09.362Z,92.06
2023-02-21T02:18:09.330Z,92.57
2023-02-21T02:19:09.378Z,92.22
2023-02-21T02:20:09.305Z,92.47
2023-02-21T02:21:09.324Z,92.06
2023-02-21T02:22:09.293Z,91.64
2023-02-21T02:23:09.294Z,91.54
2023-02-21T02:24:09.288Z,92.16
2023-02-21T02:25:09.254Z,92.53
2023-02-21T02:26:09.247Z,91.75
2023-02-21T02:27:09.252Z,92.37
2023-02-21T02:28:09.241Z,92.16
2023-02-21T02:29:09.218Z,92.16
2023-02-21T02:30:09.279Z,92.47
2023-02-21T02:31:09.311Z,92.16
2023-02-21T02:32:09.310Z,92.16
2023-02-21T02:33:09.167Z,92.06
2023-02-21T02:34:09.143Z,92.16
2023-02-21T02:35:09.150Z,92.37
2023-02-21T02:36:09.147Z,92.43
2023-02-21T02:37:09.272Z,92.06
2023-02-21T02:38:09.096Z,92.43
2023-02-21T02:39:09.090Z,92.47
2023-02-21T02:40:09.075Z,92.47
2023-02-21T02:41:09.086Z,91.81
2023-02-21T02:42:09.087Z,91.75
2023-02-21T02:43:09.064Z,91.71
2023-02-21T02:44:09.028Z,91.91
2023-02-21T02:45:09.019Z,91.50
2023-02-21T02:46:09.037Z,92.02
2023-02-21T02:47:09.041Z,91.71
2023-02-21T02:48:09.004Z,91.60
2023-02-21T02:49:09.021Z,91.91
2023-02-21T02:50:08.955Z,91.91
2023-02-21T02:51:09.002Z,91.60
2023-02-21T02:52:08.939Z,92.02
2023-02-21T02:53:08.989Z,92.02
2023-02-21T02:54:08.912Z,91.71
2023-02-21T02:55:08.906Z,91.81
2023-02-21T02:56:08.885Z,91.50
2023-02-21T02:57:08.888Z,92.02
2023-02-21T02:58:08.898Z,91.81
2023-02-21T02:59:08.881Z,92.43
2023-02-21T03:00:08.869Z,91.60
2023-02-21T03:01:08.831Z,91.71
2023-02-21T03:02:08.818Z,92.02
2023-02-21T03:03:08.816Z,91.91
2023-02-21T03:04:08.832Z,91.91
2023-02-21T03:05:08.826Z,92.22
2023-02-21T03:06:08.770Z,91.50
2023-02-21T03:07:08.771Z,91.66
2023-02-21T03:08:08.754Z,91.71
2023-02-21T03:09:08.761Z,92.02
2023-02-21T03:10:08.757Z,91.97
2023-02-21T03:11:08.756Z,91.56
2023-02-21T03:12:08.703Z,92.02
2023-02-21T03:13:08.699Z,91.87
2023-02-21T03:14:08.678Z,91.97
2023-02-21T03:15:08.699Z,91.66
2023-02-21T03:16:08.680Z,92.29
2023-02-21T03:17:08.670Z,92.29
2023-02-21T03:18:08.635Z,92.38
2023-02-21T03:19:08.635Z,92.18
2023-02-21T03:20:08.652Z,92.43
2023-02-21T03:21:08.647Z,92.29
2023-02-21T03:22:08.626Z,92.38
2023-02-21T03:23:08.617Z,92.63
2023-02-21T03:24:08.569Z,92.38
2023-02-21T03:25:08.579Z,92.38
2023-02-21T03:26:08.554Z,92.49
2023-02-21T03:27:08.559Z,92.49
2023-02-21T03:28:08.536Z,92.22
2023-02-21T03:29:08.519Z,92.08
2023-02-21T03:30:08.531Z,92.38
2023-02-21T03:31:08.535Z,92.49
2023-02-21T03:32:08.537Z,92.59
2023-02-21T03:33:08.472Z,92.94
2023-02-21T03:34:08.504Z,92.80
2023-02-21T03:35:08.448Z,92.80
2023-02-21T03:36:08.452Z,92.84
2023-02-21T03:37:08.429Z,92.80
2023-02-21T03:38:08.415Z,92.80
2023-02-21T03:39:08.405Z,92.90
2023-02-21T03:40:08.397Z,92.94
2023-02-21T03:41:08.400Z,92.90
2023-02-21T03:42:08.381Z,92.80
2023-02-21T03:43:08.390Z,93.21
2023-02-21T03:44:08.355Z,92.80
2023-02-21T03:45:08.337Z,92.80
2023-02-21T03:46:08.350Z,92.84
2023-02-21T03:47:08.326Z,92.80
2023-02-21T03:48:08.292Z,92.80
2023-02-21T03:49:08.316Z,92.90
2023-02-21T03:50:08.300Z,92.90
2023-02-21T03:51:08.421Z,92.69
2023-02-21T03:52:08.272Z,92.90
2023-02-21T03:53:09.658Z,92.69
2023-02-21T03:54:08.224Z,92.59
2023-02-21T03:55:10.356Z,93.01
2023-02-21T03:56:08.237Z,92.90
2023-02-21T03:57:08.239Z,92.90
2023-02-21T03:58:08.219Z,93.31
2023-02-21T03:59:08.243Z,93.01
2023-02-21T04:00:08.178Z,92.90
2023-02-21T04:01:08.207Z,92.90
2023-02-21T04:02:08.179Z,93.21
2023-02-21T04:03:08.150Z,93.16
2023-02-21T04:04:08.153Z,93.01
2023-02-21T04:05:08.113Z,93.11
2023-02-21T04:06:08.093Z,93.01
2023-02-21T04:07:08.085Z,93.06
2023-02-21T04:08:08.256Z,93.06
2023-02-21T04:09:08.077Z,93.01
2023-02-21T04:10:08.056Z,92.90
2023-02-21T04:11:08.039Z,92.55
2023-02-21T04:12:08.041Z,93.01
2023-02-21T04:13:08.040Z,92.90
2023-02-21T04:14:08.001Z,92.96
2023-02-21T04:15:08.040Z,92.59
2023-02-21T04:16:07.998Z,92.55
2023-02-21T04:17:07.974Z,92.86
2023-02-21T04:18:07.978Z,93.01
2023-02-21T04:19:07.967Z,92.80
2023-02-21T04:20:07.957Z,92.96
2023-02-21T04:21:07.922Z,92.96
2023-02-21T04:22:07.924Z,93.11
2023-02-21T04:23:07.903Z,92.65
2023-02-21T04:24:07.912Z,93.06
2023-02-21T04:25:07.882Z,93.01
2023-02-21T04:26:07.881Z,93.37
2023-02-21T04:27:07.865Z,93.01
2023-02-21T04:28:07.857Z,92.76
2023-02-21T04:29:07.853Z,92.80
2023-02-21T04:30:07.874Z,93.11
2023-02-21T04:31:07.819Z,92.96
2023-02-21T04:32:07.877Z,92.76
2023-02-21T04:33:07.788Z,92.86
2023-02-21T04:34:12.198Z,92.86
2023-02-21T04:35:07.766Z,92.96
2023-02-21T04:36:07.752Z,92.69
2023-02-21T04:37:07.754Z,92.90
2023-02-21T04:38:07.727Z,92.65
2023-02-21T04:39:07.748Z,92.80
2023-02-21T04:40:07.720Z,92.86
2023-02-21T04:41:07.699Z,93.06
2023-02-21T04:42:07.681Z,92.86
2023-02-21T04:43:07.686Z,92.86
2023-02-21T04:44:07.683Z,92.65
2023-02-21T04:45:07.674Z,93.06
2023-02-21T04:46:07.678Z,93.11
2023-02-21T04:47:07.645Z,92.96
2023-02-21T04:48:07.615Z,92.86
2023-02-21T04:49:07.641Z,92.96
2023-02-21T04:50:07.591Z,93.06
2023-02-21T04:51:15.208Z,92.76
2023-02-21T04:52:08.612Z,93.16
2023-02-21T04:53:07.629Z,92.76
2023-02-21T04:54:07.744Z,92.96
2023-02-21T04:55:07.579Z,93.06
2023-02-21T04:56:07.529Z,93.16
2023-02-21T04:57:07.534Z,93.27
2023-02-21T04:58:07.524Z,93.06
2023-02-21T04:59:07.549Z,93.27
2023-02-21T05:00:07.516Z,93.06
2023-02-21T05:01:07.512Z,93.68
2023-02-21T05:02:07.488Z,93.48
2023-02-21T05:03:07.450Z,93.79
2023-02-21T05:04:07.492Z,93.68
2023-02-21T05:05:07.489Z,93.68
2023-02-21T05:06:07.427Z,92.86
2023-02-21T05:07:07.408Z,93.27
2023-02-21T05:08:07.386Z,93.48
2023-02-21T05:09:07.404Z,93.48
2023-02-21T05:10:07.364Z,93.73
2023-02-21T05:11:07.382Z,93.88
2023-02-21T05:12:07.354Z,93.48
2023-02-21T05:13:07.352Z,93.88
2023-02-21T05:14:07.322Z,93.73
2023-02-21T05:15:07.315Z,93.93
2023-02-21T05:16:07.300Z,93.93
2023-02-21T05:17:07.308Z,93.93
2023-02-21T05:18:07.311Z,93.58
2023-02-21T05:19:07.294Z,93.62
2023-02-21T05:20:07.250Z,93.73
2023-02-21T05:21:07.274Z,93.73
2023-02-21T05:22:14.921Z,93.83
2023-02-21T05:23:13.345Z,93.73
2023-02-21T05:24:08.236Z,93.79
2023-02-21T05:25:07.200Z,93.93
2023-02-21T05:26:07.206Z,93.88
2023-02-21T05:27:14.848Z,93.73
2023-02-21T05:28:07.278Z,93.88
2023-02-21T05:29:07.159Z,93.83
2023-02-21T05:30:07.194Z,93.93
2023-02-21T05:31:15.126Z,93.73
2023-02-21T05:32:14.799Z,93.52
2023-02-21T05:33:15.200Z,93.93
2023-02-21T05:34:16.112Z,93.93
2023-02-21T05:35:14.813Z,94.30
2023-02-21T05:36:14.760Z,94.34
2023-02-21T05:37:07.078Z,94.34
2023-02-21T05:38:07.075Z,94.20
2023-02-21T05:39:07.170Z,93.79
2023-02-21T05:40:07.031Z,94.45
2023-02-21T05:41:07.023Z,94.30
2023-02-21T05:42:07.027Z,94.40
2023-02-21T05:43:06.989Z,94.09
2023-02-21T05:44:07.005Z,94.09
2023-02-21T05:45:06.974Z,94.20
2023-02-21T05:46:07.009Z,94.34
2023-02-21T05:47:06.972Z,94.45
2023-02-21T05:48:06.963Z,94.20
2023-02-21T05:49:06.930Z,94.13
2023-02-21T05:50:06.933Z,94.20
2023-02-21T05:51:06.943Z,94.13
2023-02-21T05:52:06.895Z,94.30
2023-02-21T05:53:06.890Z,94.40
2023-02-21T05:54:06.889Z,94.20
2023-02-21T05:55:06.857Z,93.48
2023-02-21T05:56:07.988Z,93.88
2023-02-21T05:57:06.833Z,93.68
2023-02-21T05:58:06.824Z,93.58
2023-02-21T05:59:06.844Z,93.52
2023-02-21T06:00:06.818Z,93.48
2023-02-21T06:01:06.805Z,93.88
2023-02-21T06:02:06.797Z,93.79
2023-02-21T06:03:06.827Z,93.79
2023-02-21T06:04:06.783Z,93.79
2023-02-21T06:05:06.775Z,93.48
2023-02-21T06:06:06.731Z,94.09
2023-02-21T06:07:06.729Z,93.79
2023-02-21T06:08:09.141Z,93.73
2023-02-21T06:09:06.704Z,93.88
2023-02-21T06:10:06.707Z,93.68
2023-02-21T06:11:06.678Z,93.79
2023-02-21T06:12:06.665Z,93.79
2023-02-21T06:13:06.662Z,93.73
2023-02-21T06:14:06.653Z,93.68
2023-02-21T06:15:06.624Z,93.41
2023-02-21T06:16:06.697Z,93.79
2023-02-21T06:17:06.615Z,93.79
2023-02-21T06:18:06.644Z,94.03
2023-02-21T06:19:15.334Z,93.93
2023-02-21T06:20:06.615Z,93.62
2023-02-21T06:21:06.565Z,94.13
2023-02-21T06:22:06.558Z,93.83
2023-02-21T06:23:06.555Z,93.73
2023-02-21T06:24:06.563Z,93.83
2023-02-21T06:25:06.520Z,93.73
2023-02-21T06:26:06.505Z,93.06
2023-02-21T06:27:06.484Z,93.79
2023-02-21T06:28:06.504Z,93.83
2023-02-21T06:29:06.804Z,93.68
2023-02-21T06:30:06.559Z,93.01
2023-02-21T06:31:06.483Z,93.01
2023-02-21T06:32:06.526Z,93.41
2023-02-21T06:33:06.438Z,93.52
2023-02-21T06:34:06.412Z,93.41
2023-02-21T06:35:06.443Z,92.69
2023-02-21T06:36:06.402Z,92.80
2023-02-21T06:37:06.402Z,93.01
2023-02-21T06:38:06.376Z,92.80
2023-02-21T06:39:06.360Z,92.69
2023-02-21T06:40:06.397Z,92.80
2023-02-21T06:41:06.378Z,92.90
2023-02-21T06:42:06.344Z,93.11
2023-02-21T06:43:06.328Z,93.01
2023-02-21T06:44:06.306Z,92.80
2023-02-21T06:45:06.286Z,93.01
2023-02-21T06:46:06.332Z,92.69
2023-02-21T06:47:06.290Z,93.01
2023-02-21T06:48:06.276Z,92.86
2023-02-21T06:49:06.254Z,92.90
2023-02-21T06:50:07.631Z,92.80
2023-02-21T06:51:06.250Z,92.86
2023-02-21T06:52:06.241Z,92.90
2023-02-21T06:53:06.211Z,92.80
2023-02-21T06:54:06.190Z,92.80
2023-02-21T06:55:06.199Z,92.90
2023-02-21T06:56:06.171Z,93.01
2023-02-21T06:57:06.177Z,93.01
2023-02-21T06:58:06.167Z,92.80
2023-02-21T06:59:06.142Z,92.90
2023-02-21T07:00:06.121Z,92.59
2023-02-21T07:01:06.141Z,93.41
2023-02-21T07:02:06.119Z,93.31
2023-02-21T07:03:06.101Z,92.80
2023-02-21T07:04:06.098Z,92.69
2023-02-21T07:05:06.080Z,92.90
2023-02-21T07:06:06.050Z,93.11
2023-02-21T07:07:06.066Z,93.21
2023-02-21T07:08:06.033Z,92.90
2023-02-21T07:09:08.563Z,93.01
2023-02-21T07:10:06.009Z,92.90
2023-02-21T07:11:05.998Z,93.01
2023-02-21T07:12:05.984Z,92.80
2023-02-21T07:13:05.965Z,93.01
2023-02-21T07:14:05.984Z,92.80
2023-02-21T07:15:05.972Z,93.31
2023-02-21T07:16:05.995Z,92.59
2023-02-21T07:17:05.940Z,91.97
2023-02-21T07:18:05.916Z,91.87
2023-02-21T07:19:05.916Z,92.38
2023-02-21T07:20:05.905Z,92.69
2023-02-21T07:21:05.890Z,92.80
2023-02-21T07:22:05.867Z,92.80
2023-02-21T07:23:05.869Z,92.80
2023-02-21T07:24:05.862Z,92.38
2023-02-21T07:25:05.826Z,92.18
2023-02-21T07:26:05.886Z,92.59
2023-02-21T07:27:05.800Z,92.49
2023-02-21T07:28:05.825Z,91.97
2023-02-21T07:29:05.850Z,92.38
2023-02-21T07:30:05.898Z,92.08
2023-02-21T07:31:05.779Z,91.87
2023-02-21T07:32:05.790Z,92.49
2023-02-21T07:33:05.768Z,91.97
2023-02-21T07:34:05.730Z,91.87
2023-02-21T07:35:05.727Z,92.08
2023-02-21T07:36:14.662Z,92.69
2023-02-21T07:38:21.996Z,92.59
2023-02-21T07:39:21.941Z,92.03
2023-02-21T07:40:21.957Z,92.49
2023-02-21T07:41:21.935Z,92.44
2023-02-21T07:42:21.935Z,92.49
2023-02-21T07:43:21.921Z,91.97
2023-02-21T07:44:21.891Z,91.97
2023-02-21T07:45:21.874Z,92.59
2023-02-21T07:46:21.892Z,91.97
2023-02-21T07:47:21.865Z,92.59
2023-02-21T07:48:21.875Z,92.34
2023-02-21T07:49:21.849Z,92.49
2023-02-21T07:50:21.844Z,92.69
2023-02-21T07:51:21.808Z,92.29
2023-02-21T07:52:21.818Z,92.49
2023-02-21T07:53:21.794Z,93.01
2023-02-21T07:54:21.788Z,93.01
2023-02-21T07:55:21.807Z,93.11
2023-02-21T07:56:21.751Z,93.11
2023-02-21T07:57:21.731Z,92.80
2023-02-21T07:58:21.743Z,92.80
2023-02-21T07:59:21.730Z,92.90
2023-02-21T08:00:21.713Z,92.90
2023-02-21T08:01:21.720Z,92.90
2023-02-21T08:02:21.680Z,92.69
2023-02-21T08:03:21.681Z,92.80
2023-02-21T08:04:21.658Z,92.80
2023-02-21T08:05:21.665Z,93.11
2023-02-21T08:06:21.672Z,92.80
2023-02-21T08:07:21.620Z,92.80
2023-02-21T08:08:21.619Z,93.01
2023-02-21T08:09:21.591Z,93.01
2023-02-21T08:10:21.623Z,93.06
2023-02-21T08:11:21.569Z,93.11
2023-02-21T08:12:21.596Z,93.01
2023-02-21T08:13:21.543Z,93.11
2023-02-21T08:14:21.538Z,93.01
2023-02-21T08:15:21.540Z,93.52
2023-02-21T08:16:21.544Z,93.11
2023-02-21T08:17:21.498Z,92.49
2023-02-21T08:18:21.530Z,93.11
2023-02-21T08:19:21.483Z,93.31
2023-02-21T08:20:21.468Z,93.31
2023-02-21T08:21:21.451Z,93.31
2023-02-21T08:22:21.466Z,92.69
2023-02-21T08:23:21.430Z,93.31
2023-02-21T08:24:21.475Z,93.11
2023-02-21T08:25:21.415Z,92.76
2023-02-21T08:26:21.521Z,93.21
2023-02-21T08:27:21.404Z,93.73
2023-02-21T08:28:21.428Z,93.62
2023-02-21T08:29:21.358Z,93.83
2023-02-21T08:30:21.460Z,93.87
2023-02-21T08:31:21.361Z,94.13
2023-02-21T08:32:21.412Z,93.98
2023-02-21T08:33:21.317Z,94.03
2023-02-21T08:34:21.306Z,94.03
2023-02-21T08:35:21.316Z,93.98
2023-02-21T08:36:21.303Z,94.24
2023-02-21T08:37:21.266Z,94.03
2023-02-21T08:38:21.262Z,94.13
2023-02-21T08:39:21.245Z,94.13
2023-02-21T08:40:21.254Z,94.18
2023-02-21T08:41:21.217Z,94.13
2023-02-21T08:42:21.329Z,94.24
2023-02-21T08:43:21.290Z,94.03
2023-02-21T08:44:21.203Z,94.24
2023-02-21T08:45:21.210Z,94.03
2023-02-21T08:46:21.190Z,94.70
2023-02-21T08:47:21.163Z,94.55
2023-02-21T08:48:21.161Z,94.55
2023-02-21T08:49:21.163Z,94.45
2023-02-21T08:50:21.137Z,94.96
2023-02-21T08:51:21.115Z,94.85
2023-02-21T08:52:21.103Z,94.85
2023-02-21T08:53:21.123Z,94.65
2023-02-21T08:54:21.092Z,94.34
2023-02-21T08:55:21.142Z,95.31
2023-02-21T08:56:21.058Z,95.06
2023-02-21T08:57:21.063Z,94.65
2023-02-21T08:58:21.046Z,95.06
2023-02-21T08:59:21.088Z,94.96
2023-02-21T09:00:21.035Z,95.06
2023-02-21T09:01:21.042Z,95.06
2023-02-21T09:02:21.038Z,95.06
2023-02-21T09:03:20.991Z,95.27
2023-02-21T09:04:21.631Z,94.96
2023-02-21T09:05:21.185Z,95.27
2023-02-21T09:06:20.998Z,95.78
2023-02-21T09:07:21.094Z,95.89
2023-02-21T09:08:20.953Z,95.89
2023-02-21T09:09:20.910Z,96.20
2023-02-21T09:10:20.901Z,96.61
2023-02-21T09:11:20.885Z,96.61
2023-02-21T09:12:20.868Z,96.92
2023-02-21T09:13:20.903Z,96.67
2023-02-21T09:14:20.895Z,96.77
2023-02-21T09:15:20.838Z,96.46
2023-02-21T09:16:20.895Z,96.71
2023-02-21T09:17:20.818Z,96.61
2023-02-21T09:18:20.846Z,96.41
2023-02-21T09:19:20.791Z,96.41
2023-02-21T09:20:20.796Z,97.13
2023-02-21T09:21:20.775Z,96.92
2023-02-21T09:22:20.762Z,97.02
2023-02-21T09:23:20.766Z,96.25
2023-02-21T09:24:20.746Z,96.88
2023-02-21T09:25:20.742Z,96.77
2023-02-21T09:26:20.728Z,96.67
2023-02-21T09:27:20.736Z,96.46
2023-02-21T09:28:20.715Z,96.36
2023-02-21T09:29:20.678Z,95.84
2023-02-21T09:30:20.720Z,95.64
2023-02-21T09:31:20.744Z,95.90
2023-02-21T09:32:20.721Z,95.70
2023-02-21T09:33:20.698Z,95.84
2023-02-21T09:34:20.639Z,96.15
2023-02-21T09:35:20.613Z,95.33
2023-02-21T09:36:20.618Z,95.12
2023-02-21T09:37:20.625Z,95.18
2023-02-21T09:38:20.594Z,94.87
2023-02-21T09:39:20.568Z,94.98
2023-02-21T09:40:20.599Z,95.18
2023-02-21T09:41:20.550Z,94.67
2023-02-21T09:42:20.549Z,94.56
2023-02-21T09:43:20.560Z,94.46
2023-02-21T09:44:20.522Z,94.46
2023-02-21T09:45:20.504Z,94.98
2023-02-21T09:46:20.497Z,95.08
2023-02-21T09:47:20.474Z,94.98
2023-02-21T09:48:20.458Z,94.98
2023-02-21T09:49:20.569Z,95.18
2023-02-21T09:50:20.483Z,94.67
2023-02-21T09:51:20.436Z,94.46
2023-02-21T09:52:20.412Z,95.18
2023-02-21T09:53:20.438Z,95.08
2023-02-21T09:54:20.388Z,94.67
2023-02-21T09:55:20.415Z,94.52
2023-02-21T09:56:20.383Z,94.83
2023-02-21T09:57:20.381Z,94.83
2023-02-21T09:58:20.422Z,94.31
2023-02-21T09:59:20.333Z,94.31
2023-02-21T10:00:20.345Z,94.73
2023-02-21T10:01:20.353Z,93.90
2023-02-21T10:02:20.313Z,94.11
2023-02-21T10:03:20.285Z,94.11
2023-02-21T10:04:20.304Z,93.90
2023-02-21T10:05:20.265Z,93.80
2023-02-21T10:06:20.269Z,93.96
2023-02-21T10:07:20.274Z,93.55
2023-02-21T10:08:20.228Z,94.01
2023-02-21T10:09:20.224Z,93.55
2023-02-21T10:10:20.199Z,93.55
2023-02-21T10:11:22.060Z,93.04
2023-02-21T10:12:20.177Z,93.24
2023-02-21T10:13:20.205Z,93.04
2023-02-21T10:14:20.159Z,92.73
2023-02-21T10:15:20.169Z,92.83
2023-02-21T10:16:20.153Z,92.63
2023-02-21T10:17:20.134Z,92.63
2023-02-21T10:18:20.147Z,92.93
2023-02-21T10:19:20.145Z,92.48
2023-02-21T10:20:20.096Z,92.73
2023-02-21T10:21:20.084Z,92.58
2023-02-21T10:22:20.074Z,92.93
2023-02-21T10:23:20.062Z,92.83
2023-02-21T10:24:20.065Z,92.69
2023-02-21T10:25:20.054Z,92.11
2023-02-21T10:26:20.038Z,91.86
2023-02-21T10:27:20.041Z,91.80
2023-02-21T10:28:20.028Z,92.42
2023-02-21T10:29:19.990Z,92.83
2023-02-21T10:30:20.053Z,92.73
2023-02-21T10:31:20.027Z,92.52
2023-02-21T10:32:20.006Z,92.73
2023-02-21T10:33:19.965Z,92.42
2023-02-21T10:34:19.950Z,92.21
2023-02-21T10:35:19.946Z,92.01
2023-02-21T10:36:19.905Z,92.21
2023-02-21T10:37:20.000Z,92.32
2023-02-21T10:38:19.884Z,91.91
2023-02-21T10:39:19.885Z,92.21
2023-02-21T10:40:19.879Z,91.70
2023-02-21T10:41:19.886Z,92.01
2023-02-21T10:42:19.844Z,92.11
2023-02-21T10:43:19.871Z,92.32
2023-02-21T10:44:19.838Z,92.32
2023-02-21T10:45:19.815Z,92.83
2023-02-21T10:46:19.859Z,92.11
2023-02-21T10:47:19.799Z,91.91
2023-02-21T10:48:19.773Z,92.21
2023-02-21T10:49:19.793Z,92.11
2023-02-21T10:50:19.819Z,92.32
2023-02-21T10:51:19.762Z,92.21
2023-02-21T10:52:19.730Z,92.42
2023-02-21T10:53:19.769Z,91.55
2023-02-21T10:54:19.709Z,91.70
2023-02-21T10:55:31.787Z,92.01
2023-02-21T10:56:20.729Z,92.21
2023-02-21T10:57:19.681Z,92.07
2023-02-21T10:58:19.657Z,92.27
2023-02-21T10:59:19.660Z,91.76
2023-02-21T11:00:19.665Z,91.35
2023-02-21T11:01:19.652Z,90.57
2023-02-21T11:02:19.681Z,91.29
2023-02-21T11:03:19.614Z,91.45
2023-02-21T11:04:19.596Z,91.76
2023-02-21T11:05:19.613Z,91.25
2023-02-21T11:06:19.586Z,91.25
2023-02-21T11:07:19.566Z,91.55
2023-02-21T11:08:19.546Z,90.83
2023-02-21T11:09:19.540Z,90.73
2023-02-21T11:10:19.545Z,90.94
2023-02-21T11:11:19.526Z,90.53
2023-02-21T11:12:19.535Z,91.14
2023-02-21T11:13:19.496Z,91.04
2023-02-21T11:14:19.484Z,90.63
2023-02-21T11:15:19.497Z,90.73
2023-02-21T11:16:19.460Z,90.83
2023-02-21T11:17:19.504Z,91.00
2023-02-21T11:18:19.449Z,90.69
2023-02-21T11:19:19.429Z,90.80
2023-02-21T11:20:19.414Z,90.69
2023-02-21T11:21:19.436Z,91.00
2023-02-21T11:22:19.410Z,90.48
2023-02-21T11:23:19.389Z,90.08
2023-02-21T11:24:19.380Z,90.80
2023-02-21T11:25:19.384Z,90.08
2023-02-21T11:26:19.362Z,90.08
2023-02-21T11:27:19.342Z,90.38
2023-02-21T11:28:19.322Z,89.97
2023-02-21T11:29:19.317Z,90.28
2023-02-21T11:30:19.375Z,90.48
2023-02-21T11:31:19.481Z,89.97
2023-02-21T11:32:19.288Z,90.28
2023-02-21T11:33:19.274Z,90.48
2023-02-21T11:34:19.261Z,90.18
2023-02-21T11:35:19.252Z,90.38
2023-02-21T11:36:19.269Z,90.28
2023-02-21T11:37:19.231Z,89.56
2023-02-21T11:38:19.228Z,89.56
2023-02-21T11:39:19.214Z,89.36
2023-02-21T11:40:19.191Z,89.15
2023-02-21T11:41:19.204Z,89.15
2023-02-21T11:42:19.180Z,89.15
2023-02-21T11:43:19.176Z,89.56
2023-02-21T11:44:19.148Z,89.36
2023-02-21T11:45:19.164Z,89.25
2023-02-21T11:46:19.162Z,89.15
2023-02-21T11:47:19.124Z,89.21
2023-02-21T11:48:19.137Z,89.56
2023-02-21T11:49:19.104Z,89.36
2023-02-21T11:50:19.090Z,89.25
2023-02-21T11:51:19.080Z,89.36
2023-02-21T11:52:19.066Z,89.21
2023-02-21T11:53:19.079Z,89.15
2023-02-21T11:54:19.077Z,89.25
2023-02-21T11:55:19.659Z,89.42
2023-02-21T11:56:19.016Z,89.62
2023-02-21T11:57:19.016Z,89.11
2023-02-21T11:58:18.986Z,89.01
2023-02-21T11:59:19.002Z,89.11
2023-02-21T12:00:19.013Z,88.49
2023-02-21T12:01:18.965Z,88.39
2023-02-21T12:02:19.020Z,88.08
2023-02-21T12:03:18.944Z,88.49
2023-02-21T12:04:18.946Z,88.80
2023-02-21T12:05:18.937Z,88.59
2023-02-21T12:06:19.013Z,88.49
2023-02-21T12:07:18.893Z,89.11
2023-02-21T12:08:18.904Z,89.31
2023-02-21T12:09:18.872Z,89.31
2023-02-21T12:10:18.865Z,89.52
2023-02-21T12:11:18.849Z,88.59
2023-02-21T12:12:18.841Z,89.52
2023-02-21T12:13:18.844Z,89.11
2023-02-21T12:14:18.811Z,88.08
2023-02-21T12:15:18.832Z,88.49
2023-02-21T12:16:18.781Z,89.01
2023-02-21T12:17:18.783Z,88.49
2023-02-21T12:18:18.801Z,89.21
2023-02-21T12:19:18.752Z,89.11
2023-02-21T12:20:18.761Z,89.31
2023-02-21T12:21:18.739Z,88.70
2023-02-21T12:22:18.711Z,89.01
2023-02-21T12:23:18.709Z,89.21
2023-02-21T12:24:18.714Z,89.31
2023-02-21T12:25:18.708Z,89.25
2023-02-21T12:26:18.686Z,88.74
2023-02-21T12:27:18.666Z,89.11
2023-02-21T12:28:18.648Z,89.11
2023-02-21T12:29:18.660Z,89.36
2023-02-21T12:30:18.673Z,89.42
2023-02-21T12:31:19.224Z,89.04
2023-02-21T12:32:18.638Z,89.31
2023-02-21T12:33:18.595Z,89.56
2023-02-21T12:34:18.604Z,89.36
2023-02-21T12:35:18.647Z,88.84
2023-02-21T12:36:18.596Z,89.15
2023-02-21T12:37:18.557Z,88.84
2023-02-21T12:38:18.539Z,89.66
2023-02-21T12:39:18.542Z,89.46
2023-02-21T12:40:18.517Z,89.46
2023-02-21T12:41:18.536Z,89.56
2023-02-21T12:42:18.517Z,89.46
2023-02-21T12:43:18.488Z,89.66
2023-02-21T12:44:18.496Z,89.15
2023-02-21T12:45:18.493Z,89.56
2023-02-21T12:46:18.510Z,89.25
2023-02-21T12:47:18.478Z,89.36
2023-02-21T12:48:18.452Z,89.36
2023-02-21T12:49:18.431Z,89.66
2023-02-21T12:50:18.459Z,88.95
2023-02-21T12:51:18.408Z,89.66
2023-02-21T12:52:18.396Z,89.66
2023-02-21T12:53:18.376Z,89.36